createdAt,value
2023-02-06T00:01:48.648Z,14.07
2023-02-06T00:04:15.772Z,12.87
2023-02-06T00:06:42.606Z,17.97
2023-02-06T00:09:09.643Z,9.07
2023-02-06T00:11:37.074Z,20.17
2023-02-06T00:14:03.673Z,12.77
2023-02-06T00:16:33.608Z,27.30
2023-02-06T00:19:00.910Z,10.77
2023-02-06T00:21:28.951Z,13.80
2023-02-06T00:23:58.038Z,17.43
2023-02-06T00:26:25.213Z,11.93
2023-02-06T00:28:51.964Z,16.27
2023-02-06T00:31:18.882Z,17.70
2023-02-06T00:33:45.439Z,28.27
2023-02-06T00:36:12.045Z,14.83
2023-02-06T00:38:39.399Z,20.70
2023-02-06T00:41:06.168Z,13.77
2023-02-06T00:43:33.114Z,14.97
2023-02-06T00:45:59.649Z,23.67
2023-02-06T00:48:27.104Z,18.90
2023-02-06T00:50:54.114Z,17.00
2023-02-06T00:53:21.056Z,11.20
2023-02-06T00:55:47.664Z,18.43
2023-02-06T00:58:14.268Z,11.03
2023-02-06T01:00:40.869Z,13.80
2023-02-06T01:03:07.402Z,22.67
2023-02-06T01:05:34.222Z,15.97
2023-02-06T01:08:02.819Z,12.60
2023-02-06T01:10:30.800Z,13.13
2023-02-06T01:12:57.287Z,15.30
2023-02-06T01:15:23.863Z,16.33
2023-02-06T01:17:50.438Z,17.60
2023-02-06T01:20:17.227Z,31.43
2023-02-06T01:22:43.778Z,28.50
2023-02-06T01:25:10.316Z,17.97
2023-02-06T01:27:37.899Z,11.50
2023-02-06T01:30:06.359Z,21.93
2023-02-06T01:32:36.225Z,18.37
2023-02-06T01:35:02.716Z,23.50
2023-02-06T01:37:29.704Z,19.50
2023-02-06T01:39:56.647Z,17.53
2023-02-06T01:42:23.109Z,28.33
2023-02-06T01:44:49.609Z,22.70
2023-02-06T01:47:17.870Z,21.23
2023-02-06T01:49:49.164Z,21.73
2023-02-06T01:52:17.587Z,25.50
2023-02-06T01:54:46.320Z,20.93
2023-02-06T01:57:13.496Z,18.00
2023-02-06T01:59:42.662Z,18.37
2023-02-06T02:02:09.274Z,17.37
2023-02-06T02:04:36.118Z,22.07
2023-02-06T02:07:11.405Z,21.20
2023-02-06T02:09:37.888Z,18.00
2023-02-06T02:12:04.630Z,20.40
2023-02-06T02:14:31.229Z,26.13
2023-02-06T02:17:28.175Z,18.80
2023-02-06T02:20:32.480Z,24.37
2023-02-06T02:23:10.952Z,18.03
2023-02-06T02:26:02.360Z,17.73
2023-02-06T02:29:04.511Z,19.13
2023-02-06T02:31:43.170Z,22.13
2023-02-06T02:34:52.525Z,26.27
2023-02-06T02:37:35.202Z,28.23
2023-02-06T02:40:19.337Z,19.97
2023-02-06T02:42:54.077Z,23.60
2023-02-06T02:45:25.257Z,24.87
2023-02-06T02:48:05.294Z,18.77
2023-02-06T02:50:32.734Z,21.83
2023-02-06T02:53:00.821Z,16.53
2023-02-06T02:55:27.489Z,20.70
2023-02-06T02:57:59.964Z,23.07
2023-02-06T03:00:26.567Z,26.10
2023-02-06T03:02:54.260Z,12.50
2023-02-06T03:05:24.403Z,25.07
2023-02-06T03:08:06.170Z,18.03
2023-02-06T03:10:44.701Z,18.77
2023-02-06T03:13:21.562Z,12.10
2023-02-06T03:15:54.032Z,19.77
2023-02-06T03:18:25.740Z,17.63
2023-02-06T03:20:52.539Z,8.00
2023-02-06T03:23:23.402Z,12.77
2023-02-06T03:25:53.149Z,17.30
2023-02-06T03:28:26.527Z,23.43
2023-02-06T03:30:55.778Z,18.80
2023-02-06T03:33:27.337Z,19.30
2023-02-06T03:35:55.247Z,12.17
2023-02-06T03:38:24.648Z,17.47
2023-02-06T03:40:52.012Z,21.10
2023-02-06T03:43:20.264Z,29.00
2023-02-06T03:45:49.859Z,14.90
2023-02-06T03:48:24.861Z,17.13
2023-02-06T03:50:54.248Z,15.80
2023-02-06T03:53:22.392Z,21.03
2023-02-06T03:55:50.896Z,21.70
2023-02-06T03:58:18.265Z,7.80
2023-02-06T04:00:46.136Z,16.60
2023-02-06T04:03:13.228Z,26.47
2023-02-06T04:05:40.686Z,28.17
2023-02-06T04:08:07.309Z,16.40
2023-02-06T04:10:33.899Z,12.33
2023-02-06T04:13:01.377Z,23.67
2023-02-06T04:15:27.891Z,20.53
2023-02-06T04:18:00.359Z,17.20
2023-02-06T04:20:28.314Z,16.83
2023-02-06T04:22:54.927Z,20.37
2023-02-06T04:25:21.519Z,19.73
2023-02-06T04:27:48.235Z,15.03
2023-02-06T04:30:15.724Z,21.60
2023-02-06T04:32:42.292Z,19.93
2023-02-06T04:35:09.099Z,20.33
2023-02-06T04:37:35.700Z,15.43
2023-02-06T04:40:02.256Z,29.33
2023-02-06T04:42:29.039Z,25.00
2023-02-06T04:44:55.518Z,29.07
2023-02-06T04:47:22.197Z,21.77
2023-02-06T04:49:48.743Z,21.30
2023-02-06T04:52:15.337Z,16.37
2023-02-06T04:54:41.863Z,26.43
2023-02-06T04:57:08.774Z,18.80
2023-02-06T04:59:35.400Z,29.30
2023-02-06T05:02:02.023Z,21.23
2023-02-06T05:04:28.576Z,17.50
2023-02-06T05:06:55.039Z,18.80
2023-02-06T05:09:21.527Z,16.73
2023-02-06T05:11:48.006Z,24.20
2023-02-06T05:14:14.797Z,11.93
2023-02-06T05:16:41.322Z,16.77
2023-02-06T05:19:07.908Z,23.23
2023-02-06T05:21:34.410Z,39.63
2023-02-06T05:24:00.914Z,13.97
2023-02-06T05:26:27.706Z,20.37
2023-02-06T05:28:54.208Z,30.27
2023-02-06T05:31:20.766Z,19.30
2023-02-06T05:33:51.141Z,22.40
2023-02-06T05:36:19.905Z,21.80
2023-02-06T05:38:47.090Z,24.33
2023-02-06T05:41:14.079Z,22.20
2023-02-06T05:43:41.109Z,28.60
2023-02-06T05:46:09.501Z,28.43
2023-02-06T05:48:36.079Z,29.00
2023-02-06T05:51:02.681Z,22.80
2023-02-06T05:53:29.514Z,26.53
2023-02-06T05:55:56.897Z,22.07
2023-02-06T05:58:23.653Z,34.50
2023-02-06T06:00:50.300Z,27.60
2023-02-06T06:03:17.016Z,35.27
2023-02-06T06:05:43.539Z,32.50
2023-02-06T06:08:10.062Z,38.10
2023-02-06T06:10:36.584Z,26.17
2023-02-06T06:13:03.551Z,28.83
2023-02-06T06:15:30.114Z,35.80
2023-02-06T06:17:56.684Z,28.67
2023-02-06T06:20:23.644Z,29.13
2023-02-06T06:22:50.145Z,33.13
2023-02-06T06:25:17.093Z,28.83
2023-02-06T06:27:43.648Z,36.27
2023-02-06T06:30:11.115Z,18.47
2023-02-06T06:32:37.708Z,34.00
2023-02-06T06:35:04.493Z,25.03
2023-02-06T06:37:30.980Z,38.33
2023-02-06T06:39:57.746Z,32.77
2023-02-06T06:42:24.409Z,34.80
2023-02-06T06:44:50.909Z,38.73
2023-02-06T06:47:17.508Z,35.60
2023-02-06T06:49:44.015Z,30.10
2023-02-06T06:52:23.030Z,33.47
2023-02-06T06:54:52.515Z,34.47
2023-02-06T06:57:19.743Z,32.47
2023-02-06T06:59:46.302Z,38.37
2023-02-06T07:02:13.058Z,34.40
2023-02-06T07:04:39.850Z,32.03
2023-02-06T07:07:06.741Z,33.97
2023-02-06T07:09:33.342Z,30.90
2023-02-06T07:12:00.199Z,59.37
2023-02-06T07:14:26.745Z,44.33
2023-02-06T07:16:53.435Z,22.23
2023-02-06T07:19:21.285Z,54.67
2023-02-06T07:21:47.906Z,36.23
2023-02-06T07:24:14.358Z,65.03
2023-02-06T07:26:41.569Z,48.80
2023-02-06T07:29:08.222Z,59.00
2023-02-06T07:31:34.829Z,32.27
2023-02-06T07:34:02.321Z,43.77
2023-02-06T07:36:28.854Z,57.73
2023-02-06T07:38:55.457Z,29.87
2023-02-06T07:41:22.171Z,51.77
2023-02-06T07:43:48.650Z,73.00
2023-02-06T07:46:15.484Z,36.10
2023-02-06T07:48:42.523Z,28.33
2023-02-06T07:51:09.628Z,24.93
2023-02-06T07:53:36.709Z,44.07
2023-02-06T07:56:09.809Z,19.13
2023-02-06T07:58:36.360Z,29.43
2023-02-06T08:01:05.181Z,29.60
2023-02-06T08:03:32.422Z,22.20
2023-02-06T08:05:59.702Z,17.10
2023-02-06T08:08:26.318Z,31.00
2023-02-06T08:10:52.813Z,20.80
2023-02-06T08:13:19.309Z,46.13
2023-02-06T08:15:45.853Z,44.20
2023-02-06T08:18:13.013Z,14.20
2023-02-06T08:20:39.505Z,10.93
2023-02-06T08:23:08.025Z,24.40
2023-02-06T08:25:35.011Z,28.57
2023-02-06T08:28:01.874Z,31.20
2023-02-06T08:30:28.494Z,19.80
2023-02-06T08:32:55.021Z,52.10
2023-02-06T08:35:21.534Z,16.97
2023-02-06T08:37:48.447Z,20.87
2023-02-06T08:40:15.374Z,26.93
2023-02-06T08:42:42.222Z,28.83
2023-02-06T08:45:09.688Z,27.90
2023-02-06T08:47:36.174Z,23.90
2023-02-06T08:50:03.732Z,30.63
2023-02-06T08:52:30.500Z,14.40
2023-02-06T08:54:57.073Z,23.83
2023-02-06T08:57:23.655Z,32.23
2023-02-06T08:59:50.459Z,27.57
2023-02-06T09:02:17.139Z,25.83
2023-02-06T09:04:43.699Z,13.33
2023-02-06T09:07:10.311Z,14.80
2023-02-06T09:09:36.848Z,19.43
2023-02-06T09:12:04.121Z,17.50
2023-02-06T09:14:30.922Z,11.20
2023-02-06T09:16:58.157Z,21.67
2023-02-06T09:19:25.582Z,15.13
2023-02-06T09:21:52.273Z,17.03
2023-02-06T09:24:18.817Z,21.83
2023-02-06T09:26:59.116Z,17.07
2023-02-06T09:29:28.976Z,15.80
2023-02-06T09:31:57.553Z,20.13
2023-02-06T09:34:25.843Z,18.47
2023-02-06T09:36:54.483Z,20.30
2023-02-06T09:39:21.293Z,21.83
2023-02-06T09:41:53.664Z,19.33
2023-02-06T09:44:22.151Z,21.63
2023-02-06T09:46:57.679Z,14.20
2023-02-06T09:49:39.145Z,17.23
2023-02-06T09:52:42.706Z,14.80
2023-02-06T09:55:48.009Z,18.73
2023-02-06T09:58:20.694Z,23.20
2023-02-06T10:00:57.078Z,17.80
2023-02-06T10:03:42.465Z,19.37
2023-02-06T10:06:21.247Z,16.70
2023-02-06T10:09:00.129Z,19.40
2023-02-06T10:12:05.237Z,19.13
2023-02-06T10:15:01.783Z,16.27
2023-02-06T10:17:32.670Z,14.77
2023-02-06T10:20:11.186Z,18.40
2023-02-06T10:22:47.486Z,15.23
2023-02-06T10:25:29.588Z,13.60
2023-02-06T10:28:02.954Z,19.33
2023-02-06T10:31:01.787Z,16.90
2023-02-06T10:33:36.207Z,27.73
2023-02-06T10:36:29.200Z,16.53
2023-02-06T10:39:14.734Z,18.67
2023-02-06T10:42:05.161Z,21.27
2023-02-06T10:44:34.673Z,23.43
2023-02-06T10:47:01.430Z,21.80
2023-02-06T10:49:38.319Z,19.63
2023-02-06T10:52:19.485Z,26.33
2023-02-06T10:54:51.122Z,20.23
2023-02-06T10:57:20.922Z,18.90
2023-02-06T10:59:53.569Z,26.43
2023-02-06T11:02:24.808Z,16.03
2023-02-06T11:04:51.644Z,15.63
2023-02-06T11:07:25.129Z,19.80
2023-02-06T11:09:52.930Z,17.37
2023-02-06T11:12:28.127Z,16.97
2023-02-06T11:14:58.887Z,17.80
2023-02-06T11:17:28.264Z,21.10
2023-02-06T11:20:01.673Z,17.83
2023-02-06T11:22:34.888Z,16.47
2023-02-06T11:25:20.621Z,20.10
2023-02-06T11:27:47.303Z,20.07
2023-02-06T11:30:35.883Z,15.43
2023-02-06T11:33:35.030Z,23.70
2023-02-06T11:36:04.108Z,23.40
2023-02-06T11:38:32.077Z,22.50
2023-02-06T11:41:00.681Z,22.37
2023-02-06T11:43:48.599Z,20.20
2023-02-06T11:46:20.961Z,28.77
2023-02-06T11:49:08.813Z,22.73
2023-02-06T11:51:46.882Z,27.40
2023-02-06T11:54:43.131Z,19.93
2023-02-06T11:57:23.213Z,24.30
2023-02-06T11:59:55.709Z,22.33
2023-02-06T12:02:28.776Z,28.70
2023-02-06T12:05:04.002Z,23.37
2023-02-06T12:08:02.452Z,23.20
2023-02-06T12:10:33.135Z,21.90
2023-02-06T12:13:08.602Z,17.50
2023-02-06T12:15:47.604Z,20.43
2023-02-06T12:18:27.274Z,23.10
2023-02-06T12:21:04.878Z,26.50
2023-02-06T12:23:39.291Z,16.77
2023-02-06T12:26:11.166Z,21.93
2023-02-06T12:29:12.698Z,25.10
2023-02-06T12:31:45.698Z,24.90
2023-02-06T12:34:28.702Z,17.70
2023-02-06T12:37:14.924Z,17.13
2023-02-06T12:39:42.912Z,15.93
2023-02-06T12:42:09.434Z,15.27
2023-02-06T12:45:02.084Z,16.37
2023-02-06T12:47:46.698Z,16.80
2023-02-06T12:50:19.171Z,15.93
2023-02-06T12:52:51.069Z,22.37
2023-02-06T12:55:56.061Z,21.10
2023-02-06T12:58:42.860Z,34.73
2023-02-06T13:01:31.650Z,23.80
2023-02-06T13:04:02.979Z,13.40
2023-02-06T13:07:09.951Z,14.73
2023-02-06T13:10:03.393Z,15.90
2023-02-06T13:12:30.897Z,14.30
2023-02-06T13:14:58.930Z,18.07
2023-02-06T13:17:44.819Z,17.20
2023-02-06T13:20:12.575Z,14.17
2023-02-06T13:22:40.413Z,14.93
2023-02-06T13:25:25.770Z,16.60
2023-02-06T13:27:53.491Z,14.50
2023-02-06T13:30:29.088Z,17.07
2023-02-06T13:32:58.756Z,13.60
2023-02-06T13:35:30.425Z,13.03
2023-02-06T13:38:22.011Z,15.37
2023-02-06T13:40:49.103Z,13.30
2023-02-06T13:43:20.134Z,12.63
2023-02-06T13:45:47.954Z,16.20
2023-02-06T13:48:23.642Z,14.80
2023-02-06T13:51:05.305Z,22.23
2023-02-06T13:53:49.789Z,13.67
2023-02-06T13:56:35.116Z,19.43
2023-02-06T13:59:06.497Z,15.07
2023-02-06T14:01:33.898Z,19.70
2023-02-06T14:04:00.757Z,14.70
2023-02-06T14:06:36.390Z,15.80
2023-02-06T14:10:06.351Z,21.47
2023-02-06T14:12:39.442Z,14.20
2023-02-06T14:15:50.219Z,19.63
2023-02-06T14:18:39.385Z,15.30
2023-02-06T14:21:46.786Z,18.20
2023-02-06T14:24:39.793Z,22.33
2023-02-06T14:27:06.303Z,15.27
2023-02-06T14:29:35.823Z,20.27
2023-02-06T14:32:11.488Z,18.17
2023-02-06T14:34:42.621Z,17.70
2023-02-06T14:37:43.224Z,26.70
2023-02-06T14:40:15.915Z,17.87
2023-02-06T14:42:45.132Z,16.53
2023-02-06T14:45:18.865Z,18.70
2023-02-06T14:47:46.268Z,17.17
2023-02-06T14:50:23.224Z,20.53
2023-02-06T14:52:56.389Z,20.47
2023-02-06T14:55:30.753Z,20.00
2023-02-06T14:57:58.864Z,19.93
2023-02-06T15:00:26.373Z,11.77
2023-02-06T15:03:15.997Z,22.80
2023-02-06T15:05:43.525Z,21.37
2023-02-06T15:08:20.205Z,16.40
2023-02-06T15:10:47.323Z,10.20
2023-02-06T15:13:34.728Z,13.80
2023-02-06T15:16:07.330Z,18.90
2023-02-06T15:18:34.967Z,17.20
2023-02-06T15:21:03.875Z,12.73
2023-02-06T15:23:55.585Z,17.43
2023-02-06T15:26:28.264Z,11.53
2023-02-06T15:29:04.094Z,14.87
2023-02-06T15:31:31.041Z,12.43
2023-02-06T15:33:59.770Z,13.73
2023-02-06T15:36:39.051Z,15.43
2023-02-06T15:39:07.996Z,13.07
2023-02-06T15:41:34.958Z,14.23
2023-02-06T15:44:12.298Z,15.10
2023-02-06T15:46:39.036Z,12.30
2023-02-06T15:49:06.947Z,8.77
2023-02-06T15:51:50.457Z,30.67
2023-02-06T15:54:21.232Z,9.63
2023-02-06T15:56:54.733Z,10.93
2023-02-06T15:59:25.164Z,14.93
2023-02-06T16:01:54.346Z,16.50
2023-02-06T16:04:29.231Z,14.23
2023-02-06T16:07:20.076Z,20.50
2023-02-06T16:10:03.793Z,25.37
2023-02-06T16:12:40.470Z,20.63
2023-02-06T16:15:36.141Z,23.47
2023-02-06T16:18:19.414Z,16.10
2023-02-06T16:20:46.698Z,15.20
2023-02-06T16:23:28.819Z,19.97
2023-02-06T16:26:05.403Z,16.63
2023-02-06T16:28:32.101Z,13.83
2023-02-06T16:31:01.799Z,14.83
2023-02-06T16:33:36.331Z,22.03
2023-02-06T16:36:03.502Z,17.73
2023-02-06T16:38:30.067Z,17.40
2023-02-06T16:40:56.650Z,17.80
2023-02-06T16:43:23.210Z,22.73
2023-02-06T16:45:50.284Z,19.93
2023-02-06T16:48:17.630Z,20.90
2023-02-06T16:50:45.841Z,18.53
2023-02-06T16:53:23.558Z,18.83
2023-02-06T16:55:50.224Z,22.23
2023-02-06T16:58:22.421Z,22.87
2023-02-06T17:00:49.532Z,32.43
2023-02-06T17:03:17.613Z,29.53
2023-02-06T17:05:45.720Z,28.63
2023-02-06T17:08:23.637Z,23.47
2023-02-06T17:10:51.626Z,29.20
2023-02-06T17:13:23.135Z,30.60
2023-02-06T17:15:52.221Z,34.40
2023-02-06T17:18:20.767Z,31.30
2023-02-06T17:20:51.583Z,29.70
2023-02-06T17:23:18.530Z,28.10
2023-02-06T17:25:46.369Z,29.73
2023-02-06T17:28:17.036Z,19.80
2023-02-06T17:30:44.831Z,22.40
2023-02-06T17:33:11.910Z,20.73
2023-02-06T17:35:38.597Z,24.57
2023-02-06T17:38:07.038Z,33.67
2023-02-06T17:40:35.547Z,40.17
2023-02-06T17:43:04.607Z,39.10
2023-02-06T17:45:31.497Z,29.57
2023-02-06T17:47:58.360Z,23.40
2023-02-06T17:50:27.247Z,22.17
2023-02-06T17:52:56.149Z,25.90
2023-02-06T17:55:23.746Z,22.57
2023-02-06T17:57:50.422Z,24.10
2023-02-06T18:00:19.242Z,29.57
2023-02-06T18:02:48.070Z,32.80
2023-02-06T18:05:14.737Z,34.67
2023-02-06T18:07:41.578Z,28.30
2023-02-06T18:10:08.832Z,27.43
2023-02-06T18:12:35.822Z,26.47
2023-02-06T18:15:03.451Z,33.40
2023-02-06T18:17:30.930Z,25.43
2023-02-06T18:19:57.563Z,27.60
2023-02-06T18:22:24.168Z,26.00
2023-02-06T18:24:50.928Z,27.17
2023-02-06T18:27:18.940Z,24.27
2023-02-06T18:29:50.142Z,28.40
2023-02-06T18:32:18.544Z,27.13
2023-02-06T18:34:45.755Z,29.40
2023-02-06T18:37:12.803Z,29.20
2023-02-06T18:39:39.635Z,34.87
2023-02-06T18:42:24.866Z,45.17
2023-02-06T18:44:51.458Z,77.87
2023-02-06T18:47:18.893Z,40.20
2023-02-06T18:49:45.681Z,38.97
2023-02-06T18:52:12.526Z,40.50
2023-02-06T18:54:39.621Z,43.63
2023-02-06T18:57:06.543Z,51.23
2023-02-06T18:59:33.175Z,41.13
2023-02-06T19:01:59.858Z,51.27
2023-02-06T19:04:26.430Z,43.73
2023-02-06T19:06:52.969Z,42.07
2023-02-06T19:09:22.426Z,41.93
2023-02-06T19:11:48.964Z,44.73
2023-02-06T19:14:17.488Z,42.97
2023-02-06T19:16:47.403Z,42.13
2023-02-06T19:19:14.987Z,37.93
2023-02-06T19:21:42.187Z,43.53
2023-02-06T19:24:12.503Z,38.07
2023-02-06T19:26:39.493Z,41.53
2023-02-06T19:29:06.313Z,42.53
2023-02-06T19:31:33.202Z,35.30
2023-02-06T19:34:01.738Z,42.40
2023-02-06T19:36:29.402Z,36.73
2023-02-06T19:38:58.516Z,39.80
2023-02-06T19:41:27.984Z,44.60
2023-02-06T19:43:55.935Z,57.83
2023-02-06T19:46:25.208Z,60.07
2023-02-06T19:48:52.311Z,60.23
2023-02-06T19:51:21.270Z,60.97
2023-02-06T19:53:50.156Z,63.77
2023-02-06T19:56:34.548Z,50.97
2023-02-06T19:59:05.120Z,46.80
2023-02-06T20:01:32.160Z,45.90
2023-02-06T20:04:00.176Z,40.33
2023-02-06T20:06:28.356Z,47.10
2023-02-06T20:08:56.793Z,46.00
2023-02-06T20:11:23.588Z,36.67
2023-02-06T20:13:52.367Z,37.97
2023-02-06T20:16:25.465Z,35.57
2023-02-06T20:18:53.589Z,40.10
2023-02-06T20:21:33.672Z,47.10
2023-02-06T20:24:03.633Z,40.57
2023-02-06T20:26:33.236Z,38.20
2023-02-06T20:29:00.330Z,34.93
2023-02-06T20:31:28.092Z,36.10
2023-02-06T20:33:54.969Z,44.33
2023-02-06T20:36:24.192Z,39.23
2023-02-06T20:38:56.017Z,42.87
2023-02-06T20:41:28.666Z,46.87
2023-02-06T20:43:59.921Z,40.13
2023-02-06T20:46:29.681Z,43.53
2023-02-06T20:49:01.947Z,32.70
2023-02-06T20:51:28.850Z,34.97
2023-02-06T20:53:55.854Z,45.17
2023-02-06T20:56:23.350Z,28.03
2023-02-06T20:58:51.184Z,28.90
2023-02-06T21:01:23.224Z,38.73
2023-02-06T21:03:51.859Z,35.77
2023-02-06T21:06:18.809Z,32.77
2023-02-06T21:08:47.121Z,36.50
2023-02-06T21:11:14.071Z,32.87
2023-02-06T21:13:41.298Z,38.10
2023-02-06T21:16:08.661Z,35.93
2023-02-06T21:18:35.607Z,34.93
2023-02-06T21:21:09.394Z,46.13
2023-02-06T21:23:40.296Z,38.53
2023-02-06T21:26:08.098Z,35.93
2023-02-06T21:28:35.522Z,41.00
2023-02-06T21:31:05.667Z,29.33
2023-02-06T21:33:32.608Z,30.40
2023-02-06T21:36:01.693Z,30.63
2023-02-06T21:38:28.317Z,31.77
2023-02-06T21:40:55.156Z,29.50
2023-02-06T21:43:21.713Z,31.60
2023-02-06T21:45:48.486Z,26.90
2023-02-06T21:48:15.312Z,24.00
2023-02-06T21:50:42.043Z,25.23
2023-02-06T21:53:09.484Z,33.10
2023-02-06T21:55:41.940Z,28.00
2023-02-06T21:58:08.801Z,23.93
2023-02-06T22:00:35.352Z,24.80
2023-02-06T22:03:02.099Z,33.63
2023-02-06T22:05:29.171Z,26.20
2023-02-06T22:07:56.810Z,23.63
2023-02-06T22:10:23.573Z,24.10
2023-02-06T22:12:50.157Z,26.03
2023-02-06T22:15:16.789Z,23.50
2023-02-06T22:17:43.374Z,25.03
2023-02-06T22:20:10.221Z,31.60
2023-02-06T22:22:38.677Z,25.07
2023-02-06T22:25:05.791Z,22.30
2023-02-06T22:27:33.114Z,26.30
2023-02-06T22:29:59.865Z,29.13
2023-02-06T22:32:26.688Z,31.07
2023-02-06T22:34:53.989Z,26.93
2023-02-06T22:37:20.869Z,31.43
2023-02-06T22:39:47.424Z,27.23
2023-02-06T22:42:14.022Z,26.37
2023-02-06T22:44:40.677Z,26.90
2023-02-06T22:47:07.374Z,30.13
2023-02-06T22:49:34.002Z,29.60
2023-02-06T22:52:00.552Z,29.87
2023-02-06T22:54:27.144Z,27.40
2023-02-06T22:56:53.698Z,27.87
2023-02-06T22:59:23.105Z,26.20
2023-02-06T23:01:51.953Z,26.63
2023-02-06T23:04:28.276Z,24.33
2023-02-06T23:06:55.757Z,29.73
2023-02-06T23:09:26.956Z,25.47
2023-02-06T23:11:54.310Z,23.50
2023-02-06T23:14:21.424Z,21.77
2023-02-06T23:16:48.377Z,29.73
2023-02-06T23:19:15.652Z,28.63
2023-02-06T23:21:43.158Z,24.90
2023-02-06T23:24:11.219Z,30.30
2023-02-06T23:26:38.204Z,23.60
2023-02-06T23:29:06.517Z,27.33
2023-02-06T23:31:33.557Z,22.40
2023-02-06T23:34:00.872Z,26.07
2023-02-06T23:36:28.076Z,25.33
2023-02-06T23:38:55.080Z,26.23
2023-02-06T23:41:27.205Z,27.97
2023-02-06T23:43:58.404Z,23.40
2023-02-06T23:46:26.714Z,25.70
2023-02-06T23:48:53.627Z,23.27
2023-02-06T23:51:20.879Z,20.67
2023-02-06T23:53:47.786Z,25.30
2023-02-06T23:56:20.584Z,26.17
2023-02-06T23:58:47.386Z,22.57
